createdAt,value
2023-04-19T00:00:31.893Z,100998.94
2023-04-19T00:02:03.766Z,100992.72
2023-04-19T00:03:35.860Z,100990.88
2023-04-19T00:05:08.473Z,100987.31
2023-04-19T00:06:42.340Z,100985.59
2023-04-19T00:08:14.166Z,100987.31
2023-04-19T00:09:45.953Z,100984.75
2023-04-19T00:11:17.734Z,100982.06
2023-04-19T00:12:49.551Z,100990.13
2023-04-19T00:14:21.336Z,100991.06
2023-04-19T00:15:53.145Z,100985.81
2023-04-19T00:17:25.053Z,100983.13
2023-04-19T00:18:56.905Z,100984.94
2023-04-19T00:20:28.713Z,100978.59
2023-04-19T00:22:00.604Z,100984.06
2023-04-19T00:23:32.528Z,100973.41
2023-04-19T00:25:04.717Z,100981.47
2023-04-19T00:26:37.042Z,100975.31
2023-04-19T00:28:09.530Z,100975.31
2023-04-19T00:29:41.511Z,100978.00
2023-04-19T00:31:13.355Z,100976.28
2023-04-19T00:32:45.251Z,100979.94
2023-04-19T00:34:17.212Z,100973.72
2023-04-19T00:35:49.131Z,100979.16
2023-04-19T00:37:21.440Z,100974.75
2023-04-19T00:38:53.333Z,100980.13
2023-04-19T00:40:25.179Z,100973.97
2023-04-19T00:42:00.235Z,100971.28
2023-04-19T00:43:32.124Z,100973.13
2023-04-19T00:45:06.256Z,100972.25
2023-04-19T00:46:38.924Z,100963.34
2023-04-19T00:48:11.143Z,100966.97
2023-04-19T00:49:43.995Z,100967.94
2023-04-19T00:51:16.198Z,100965.25
2023-04-19T00:52:49.058Z,100971.59
2023-04-19T00:54:21.298Z,100962.66
2023-04-19T00:55:57.815Z,100959.19
2023-04-19T00:57:30.117Z,100967.16
2023-04-19T00:59:02.614Z,100958.34
2023-04-19T01:00:37.032Z,100954.88
2023-04-19T01:02:10.163Z,100949.50
2023-04-19T01:03:42.563Z,100958.53
2023-04-19T01:05:14.972Z,100951.44
2023-04-19T01:06:46.891Z,100955.06
2023-04-19T01:08:19.139Z,100954.28
2023-04-19T01:09:53.914Z,100948.03
2023-04-19T01:11:29.168Z,100957.03
2023-04-19T01:13:00.957Z,100957.16
2023-04-19T01:14:32.776Z,100962.53
2023-04-19T01:16:04.951Z,100948.31
2023-04-19T01:17:37.683Z,100960.97
2023-04-19T01:19:10.507Z,100948.50
2023-04-19T01:20:42.416Z,100953.88
2023-04-19T01:22:21.723Z,100954.16
2023-04-19T01:23:53.545Z,100955.03
2023-04-19T01:25:27.590Z,100954.25
2023-04-19T01:26:59.481Z,100957.91
2023-04-19T01:28:33.132Z,100953.50
2023-04-19T01:30:05.368Z,100957.22
2023-04-19T01:31:37.309Z,100953.69
2023-04-19T01:33:09.275Z,100954.63
2023-04-19T01:34:43.000Z,100956.56
2023-04-19T01:36:14.892Z,100951.25
2023-04-19T01:37:47.065Z,100953.19
2023-04-19T01:39:19.080Z,100953.25
2023-04-19T01:40:50.973Z,100947.03
2023-04-19T01:42:23.075Z,100947.13
2023-04-19T01:43:54.904Z,100948.09
2023-04-19T01:45:26.727Z,100945.50
2023-04-19T01:46:58.589Z,100942.03
2023-04-19T01:48:30.577Z,100943.88
2023-04-19T01:50:02.377Z,100935.03
2023-04-19T01:51:34.202Z,100936.00
2023-04-19T01:53:06.419Z,100939.66
2023-04-19T01:54:38.198Z,100942.22
2023-04-19T01:56:10.020Z,100940.56
2023-04-19T01:57:42.336Z,100937.91
2023-04-19T01:59:14.225Z,100936.19
2023-04-19T02:00:46.379Z,100935.31
2023-04-19T02:02:18.313Z,100930.03
2023-04-19T02:03:50.463Z,100935.38
2023-04-19T02:05:22.427Z,100930.13
2023-04-19T02:06:54.233Z,100929.28
2023-04-19T02:08:26.729Z,100929.34
2023-04-19T02:09:59.865Z,100928.50
2023-04-19T02:11:31.803Z,100934.81
2023-04-19T02:13:03.663Z,100926.84
2023-04-19T02:14:35.819Z,100934.03
2023-04-19T02:16:08.235Z,100927.03
2023-04-19T02:17:40.847Z,100926.16
2023-04-19T02:19:12.686Z,100934.31
2023-04-19T02:20:44.553Z,100933.47
2023-04-19T02:22:16.385Z,100938.03
2023-04-19T02:23:48.195Z,100932.75
2023-04-19T02:25:20.543Z,100926.63
2023-04-19T02:26:52.498Z,100922.31
2023-04-19T02:28:24.357Z,100925.00
2023-04-19T02:29:56.686Z,100925.16
2023-04-19T02:31:29.580Z,100924.38
2023-04-19T02:33:01.426Z,100933.41
2023-04-19T02:34:34.620Z,100931.88
2023-04-19T02:36:06.829Z,100928.41
2023-04-19T02:37:38.854Z,100931.19
2023-04-19T02:39:10.759Z,100921.41
2023-04-19T02:40:43.741Z,100924.28
2023-04-19T02:42:15.574Z,100923.50
2023-04-19T02:43:47.380Z,100926.25
2023-04-19T02:45:19.195Z,100924.53
2023-04-19T02:46:52.687Z,100918.41
2023-04-19T02:48:24.510Z,100917.63
2023-04-19T02:49:56.539Z,100919.50
2023-04-19T02:51:28.410Z,100915.13
2023-04-19T02:53:00.222Z,100913.41
2023-04-19T02:54:35.126Z,100916.09
2023-04-19T02:56:07.622Z,100915.28
2023-04-19T02:57:39.480Z,100906.47
2023-04-19T02:59:13.702Z,100903.78
2023-04-19T03:00:45.529Z,100916.44
2023-04-19T03:02:21.067Z,100904.13
2023-04-19T03:03:53.105Z,100910.38
2023-04-19T03:05:25.368Z,100899.72
2023-04-19T03:06:57.181Z,100911.31
2023-04-19T03:08:29.575Z,100911.44
2023-04-19T03:10:01.841Z,100905.28
2023-04-19T03:11:33.938Z,100903.56
2023-04-19T03:13:05.784Z,100900.09
2023-04-19T03:14:37.727Z,100899.22
2023-04-19T03:16:09.821Z,100898.38
2023-04-19T03:17:42.516Z,100899.41
2023-04-19T03:19:14.863Z,100900.38
2023-04-19T03:20:52.707Z,100889.72
2023-04-19T03:22:24.635Z,100888.78
2023-04-19T03:23:57.284Z,100892.38
2023-04-19T03:25:30.429Z,100893.34
2023-04-19T03:27:14.188Z,100886.28
2023-04-19T03:28:48.710Z,100886.34
2023-04-19T03:30:20.528Z,100884.63
2023-04-19T03:31:52.409Z,100882.91
2023-04-19T03:33:24.506Z,100882.06
2023-04-19T03:34:56.889Z,100872.25
2023-04-19T03:36:29.540Z,100865.25
2023-04-19T03:38:02.064Z,100872.53
2023-04-19T03:39:34.219Z,100869.84
2023-04-19T03:41:25.506Z,100874.44
2023-04-19T03:43:17.440Z,100861.03
2023-04-19T03:44:49.346Z,100865.53
2023-04-19T03:46:23.224Z,100864.75
2023-04-19T03:47:55.170Z,100859.50
2023-04-19T03:49:27.141Z,100867.59
2023-04-19T03:51:08.091Z,100870.28
2023-04-19T03:52:39.951Z,100866.75
2023-04-19T03:54:12.335Z,100873.09
2023-04-19T03:55:44.247Z,100874.06
2023-04-19T03:57:17.790Z,100866.13
2023-04-19T03:58:52.335Z,100863.44
2023-04-19T04:00:24.320Z,100872.50
2023-04-19T04:02:01.422Z,100871.66
2023-04-19T04:03:34.058Z,100865.44
2023-04-19T04:05:07.889Z,100863.69
2023-04-19T04:06:40.762Z,100866.47
2023-04-19T04:08:14.076Z,100863.84
2023-04-19T04:09:47.998Z,100863.09
2023-04-19T04:11:20.012Z,100865.78
2023-04-19T04:12:53.759Z,100875.72
2023-04-19T04:14:32.342Z,100875.81
2023-04-19T04:16:05.449Z,100875.97
2023-04-19T04:17:37.511Z,100878.66
2023-04-19T04:19:10.055Z,100871.66
2023-04-19T04:20:45.570Z,100879.69
2023-04-19T04:22:17.607Z,100879.00
2023-04-19T04:23:50.111Z,100872.00
2023-04-19T04:25:45.281Z,100881.84
2023-04-19T04:27:21.574Z,100886.41
2023-04-19T04:28:55.024Z,100881.16
2023-04-19T04:30:28.053Z,100884.75
2023-04-19T04:32:01.921Z,100874.06
2023-04-19T04:33:41.803Z,100881.31
2023-04-19T04:35:15.832Z,100888.56
2023-04-19T04:36:54.428Z,100887.59
2023-04-19T04:38:28.171Z,100881.56
2023-04-19T04:40:01.505Z,100888.72
2023-04-19T04:41:33.605Z,100883.38
2023-04-19T04:43:05.818Z,100878.19
2023-04-19T04:44:39.233Z,100889.75
2023-04-19T04:46:13.376Z,100880.00
2023-04-19T04:47:47.481Z,100881.81
2023-04-19T04:49:20.952Z,100881.91
2023-04-19T04:50:52.824Z,100873.00
2023-04-19T04:52:24.776Z,100877.59
2023-04-19T04:54:05.774Z,100876.75
2023-04-19T04:55:37.885Z,100867.81
2023-04-19T04:57:09.997Z,100869.56
2023-04-19T04:58:41.889Z,100867.81
2023-04-19T05:00:17.902Z,100866.94
2023-04-19T05:02:00.807Z,100867.06
2023-04-19T05:03:32.927Z,100868.88
2023-04-19T05:05:11.411Z,100875.09
2023-04-19T05:06:44.704Z,100885.78
2023-04-19T05:08:17.853Z,100883.19
2023-04-19T05:09:50.751Z,100876.97
2023-04-19T05:11:27.931Z,100877.84
2023-04-19T05:13:01.916Z,100881.31
2023-04-19T05:14:35.014Z,100880.44
2023-04-19T05:16:07.234Z,100880.44
2023-04-19T05:17:39.823Z,100871.44
2023-04-19T05:19:11.752Z,100878.53
2023-04-19T05:20:49.833Z,100883.88
2023-04-19T05:22:27.610Z,100873.16
2023-04-19T05:23:59.509Z,100882.00
2023-04-19T05:25:31.389Z,100885.47
2023-04-19T05:27:04.012Z,100878.19
2023-04-19T05:28:35.957Z,100880.81
2023-04-19T05:30:15.670Z,100884.06
2023-04-19T05:31:49.865Z,100881.31
2023-04-19T05:33:42.103Z,100875.81
2023-04-19T05:35:14.774Z,100871.03
2023-04-19T05:36:46.687Z,100872.69
2023-04-19T05:38:19.022Z,100877.88
2023-04-19T05:39:51.225Z,100875.13
2023-04-19T05:41:23.973Z,100877.69
2023-04-19T05:42:55.869Z,100883.75
2023-04-19T05:44:27.639Z,100883.56
2023-04-19T05:45:59.533Z,100880.78
2023-04-19T05:47:31.544Z,100873.66
2023-04-19T05:49:22.916Z,100872.69
2023-04-19T05:51:21.582Z,100866.03
2023-04-19T05:53:03.203Z,100873.84
2023-04-19T05:54:36.274Z,100864.75
2023-04-19T05:56:09.426Z,100869.75
2023-04-19T05:57:41.611Z,100870.25
2023-04-19T05:59:14.276Z,100868.03
2023-04-19T06:00:46.598Z,100868.41
2023-04-19T06:02:21.816Z,100867.03
2023-04-19T06:03:54.745Z,100871.91
2023-04-19T06:05:27.227Z,100865.34
2023-04-19T06:07:00.964Z,100869.56
2023-04-19T06:08:32.783Z,100873.81
2023-04-19T06:10:04.969Z,100871.81
2023-04-19T06:11:46.979Z,100870.53
2023-04-19T06:13:19.095Z,100867.88
2023-04-19T06:14:52.843Z,100865.59
2023-04-19T06:16:24.834Z,100867.97
2023-04-19T06:17:59.240Z,100875.00
2023-04-19T06:19:34.099Z,100873.94
2023-04-19T06:21:06.535Z,100871.94
2023-04-19T06:22:48.851Z,100871.88
2023-04-19T06:24:20.665Z,100865.22
2023-04-19T06:25:52.702Z,100865.03
2023-04-19T06:27:24.477Z,100872.06
2023-04-19T06:28:56.337Z,100857.59
2023-04-19T06:30:28.144Z,100857.28
2023-04-19T06:32:00.032Z,100848.19
2023-04-19T06:33:31.969Z,100860.56
2023-04-19T06:35:04.696Z,100859.59
2023-04-19T06:36:36.601Z,100872.72
2023-04-19T06:38:08.397Z,100865.38
2023-04-19T06:39:40.163Z,100870.72
2023-04-19T06:41:12.613Z,100870.81
2023-04-19T06:42:44.424Z,100864.66
2023-04-19T06:44:17.218Z,100876.28
2023-04-19T06:45:49.307Z,100881.84
2023-04-19T06:47:21.436Z,100874.06
2023-04-19T06:48:53.291Z,100871.56
2023-04-19T06:50:25.257Z,100867.53
2023-04-19T06:51:57.095Z,100872.44
2023-04-19T06:53:28.937Z,100864.00
2023-04-19T06:55:00.789Z,100858.16
2023-04-19T06:56:45.673Z,100865.78
2023-04-19T06:58:17.632Z,100865.19
2023-04-19T06:59:49.413Z,100871.88
2023-04-19T07:01:21.298Z,100867.75
2023-04-19T07:02:53.345Z,100863.50
2023-04-19T07:04:27.170Z,100848.69
2023-04-19T07:05:59.352Z,100853.25
2023-04-19T07:07:31.236Z,100842.72
2023-04-19T07:09:04.374Z,100845.56
2023-04-19T07:10:36.172Z,100844.88
2023-04-19T07:12:07.997Z,100843.34
2023-04-19T07:13:39.781Z,100849.56
2023-04-19T07:15:12.330Z,100844.38
2023-04-19T07:16:44.143Z,100841.88
2023-04-19T07:18:16.385Z,100837.50
2023-04-19T07:19:49.144Z,100836.69
2023-04-19T07:21:20.978Z,100827.03
2023-04-19T07:22:52.798Z,100836.03
2023-04-19T07:24:26.359Z,100832.56
2023-04-19T07:25:58.159Z,100822.69
2023-04-19T07:27:29.982Z,100840.72
2023-04-19T07:29:01.875Z,100831.63
2023-04-19T07:30:33.828Z,100829.03
2023-04-19T07:32:06.145Z,100828.06
2023-04-19T07:33:38.177Z,100825.56
2023-04-19T07:35:10.251Z,100827.47
2023-04-19T07:36:42.098Z,100820.47
2023-04-19T07:38:13.914Z,100815.63
2023-04-19T07:39:46.112Z,100813.63
2023-04-19T07:41:18.411Z,100814.22
2023-04-19T07:42:50.239Z,100818.53
2023-04-19T07:44:22.087Z,100816.63
2023-04-19T07:45:54.415Z,100821.00
2023-04-19T07:47:26.394Z,100818.25
2023-04-19T07:48:58.177Z,100807.41
2023-04-19T07:50:30.073Z,100818.94
2023-04-19T07:52:02.102Z,100813.56
2023-04-19T07:53:34.154Z,100817.03
2023-04-19T07:55:06.612Z,100822.97
2023-04-19T07:56:38.448Z,100811.13
2023-04-19T07:58:10.369Z,100816.88
2023-04-19T07:59:42.226Z,100810.97
2023-04-19T08:01:14.105Z,100814.69
2023-04-19T08:02:47.038Z,100818.06
2023-04-19T08:04:21.066Z,100812.50
2023-04-19T08:05:53.847Z,100806.94
2023-04-19T08:07:26.374Z,100804.72
2023-04-19T08:08:58.195Z,100806.13
2023-04-19T08:10:31.115Z,100798.75
2023-04-19T08:12:03.067Z,100801.00
2023-04-19T08:13:34.929Z,100804.06
2023-04-19T08:15:28.177Z,100808.84
2023-04-19T08:18:35.776Z,100793.91
2023-04-19T08:20:08.388Z,100794.34
2023-04-19T08:21:41.458Z,100793.88
2023-04-19T08:23:22.721Z,100789.84
2023-04-19T08:24:56.268Z,100792.06
2023-04-19T08:26:28.061Z,100792.75
2023-04-19T08:28:00.001Z,100790.75
2023-04-19T08:29:33.715Z,100789.72
2023-04-19T08:31:07.807Z,100786.56
2023-04-19T08:32:39.648Z,100779.13
2023-04-19T08:34:11.472Z,100780.53
2023-04-19T08:35:45.750Z,100775.25
2023-04-19T08:37:17.668Z,100774.28
2023-04-19T08:39:01.946Z,100772.22
2023-04-19T08:40:45.686Z,100778.97
2023-04-19T08:42:32.455Z,100774.31
2023-04-19T08:44:09.136Z,100767.91
2023-04-19T08:45:41.324Z,100771.44
2023-04-19T08:47:23.539Z,100769.09
2023-04-19T08:49:01.609Z,100761.22
2023-04-19T08:50:38.903Z,100764.19
2023-04-19T08:52:18.789Z,100760.69
2023-04-19T08:53:51.788Z,100753.31
2023-04-19T08:55:23.743Z,100755.63
2023-04-19T08:56:58.836Z,100755.25
2023-04-19T09:00:09.449Z,100763.34
2023-04-19T09:01:43.617Z,100763.09
2023-04-19T09:03:16.554Z,100755.47
2023-04-19T09:04:48.717Z,100758.50
2023-04-19T09:06:20.786Z,100758.94
2023-04-19T09:07:52.794Z,100750.19
2023-04-19T09:09:36.970Z,100744.53
2023-04-19T09:11:13.116Z,100756.66
2023-04-19T09:13:02.235Z,100743.84
2023-04-19T09:14:34.129Z,100745.19
2023-04-19T09:16:08.182Z,100735.53
2023-04-19T09:17:41.054Z,100729.25
2023-04-19T09:19:23.531Z,100734.78
2023-04-19T09:21:00.598Z,100736.53
2023-04-19T09:22:34.535Z,100736.25
2023-04-19T09:24:07.195Z,100737.69
2023-04-19T09:25:59.343Z,100725.81
2023-04-19T09:27:37.253Z,100722.13
2023-04-19T09:29:09.101Z,100727.66
2023-04-19T09:32:15.420Z,100726.66
2023-04-19T09:33:47.391Z,100724.38
2023-04-19T09:35:19.306Z,100714.81
2023-04-19T09:37:00.656Z,100719.03
2023-04-19T09:38:48.927Z,100711.44
2023-04-19T09:40:25.413Z,100714.84
2023-04-19T09:41:58.430Z,100721.00
2023-04-19T09:43:55.902Z,100704.63
2023-04-19T09:46:56.751Z,100707.38
2023-04-19T09:48:28.710Z,100707.13
2023-04-19T09:50:19.240Z,100714.41
2023-04-19T09:51:56.516Z,100701.13
2023-04-19T09:53:30.142Z,100702.66
2023-04-19T09:55:18.150Z,100698.44
2023-04-19T09:56:57.394Z,100699.34
2023-04-19T10:00:09.053Z,100689.09
2023-04-19T10:01:58.414Z,100683.72
2023-04-19T10:03:31.277Z,100694.81
2023-04-19T10:05:19.610Z,100689.66
2023-04-19T10:07:19.424Z,100687.47
2023-04-19T10:08:47.962Z,100690.16
2023-04-19T10:10:23.854Z,100685.50
2023-04-19T10:12:07.796Z,100674.03
2023-04-19T10:13:57.532Z,100681.13
2023-04-19T10:15:49.452Z,100677.81
2023-04-19T10:17:24.093Z,100683.19
2023-04-19T10:18:57.064Z,100680.28
2023-04-19T10:20:49.690Z,100685.75
2023-04-19T10:22:21.571Z,100670.44
2023-04-19T10:23:54.050Z,100676.31
2023-04-19T10:25:30.376Z,100679.03
2023-04-19T10:27:05.350Z,100672.72
2023-04-19T10:28:38.283Z,100663.63
2023-04-19T10:30:18.318Z,100660.06
2023-04-19T10:31:51.412Z,100668.50
2023-04-19T10:33:28.055Z,100666.50
2023-04-19T10:35:04.937Z,100653.44
2023-04-19T10:36:38.232Z,100652.59
2023-04-19T10:38:13.053Z,100662.94
2023-04-19T10:39:45.546Z,100653.50
2023-04-19T10:41:19.415Z,100656.91
2023-04-19T10:43:13.066Z,100663.25
2023-04-19T10:45:22.758Z,100660.34
2023-04-19T10:46:55.111Z,100655.34
2023-04-19T10:48:27.486Z,100641.31
2023-04-19T10:49:59.283Z,100646.16
2023-04-19T10:51:39.632Z,100646.75
2023-04-19T10:53:46.538Z,100642.81
2023-04-19T10:55:21.573Z,100642.25
2023-04-19T10:57:05.222Z,100636.72
2023-04-19T10:59:01.945Z,100637.03
2023-04-19T11:00:35.958Z,100635.78
2023-04-19T11:02:23.088Z,100630.63
2023-04-19T11:03:55.407Z,100631.34
2023-04-19T11:05:27.660Z,100638.22
2023-04-19T11:07:03.229Z,100627.97
2023-04-19T11:08:35.722Z,100627.13
2023-04-19T11:10:08.913Z,100622.16
2023-04-19T11:11:40.735Z,100621.91
2023-04-19T11:13:13.803Z,100634.56
2023-04-19T11:14:47.842Z,100626.84
2023-04-19T11:16:21.327Z,100626.84
2023-04-19T11:18:11.401Z,100620.69
2023-04-19T11:19:53.944Z,100616.28
2023-04-19T11:21:25.761Z,100622.56
2023-04-19T11:23:01.102Z,100606.03
2023-04-19T11:24:35.507Z,100609.50
2023-04-19T11:26:11.873Z,100610.59
2023-04-19T11:27:45.580Z,100605.34
2023-04-19T11:29:20.112Z,100604.91
2023-04-19T11:30:52.679Z,100606.34
2023-04-19T11:32:24.547Z,100602.81
2023-04-19T11:33:59.442Z,100603.91
2023-04-19T11:35:31.631Z,100598.78
2023-04-19T11:37:03.479Z,100609.28
2023-04-19T11:38:35.407Z,100599.16
2023-04-19T11:40:08.057Z,100602.91
2023-04-19T11:41:40.070Z,100609.28
2023-04-19T11:43:11.945Z,100600.59
2023-04-19T11:44:49.196Z,100602.78
2023-04-19T11:46:21.247Z,100610.06
2023-04-19T11:47:53.253Z,100605.00
2023-04-19T11:49:26.519Z,100609.31
2023-04-19T11:50:59.697Z,100605.53
2023-04-19T11:52:35.680Z,100605.19
2023-04-19T11:54:15.271Z,100601.44
2023-04-19T11:55:51.302Z,100603.97
2023-04-19T11:57:31.496Z,100597.72
2023-04-19T11:59:03.339Z,100593.19
2023-04-19T12:00:35.543Z,100601.19
2023-04-19T12:02:12.124Z,100605.09
2023-04-19T12:03:49.383Z,100599.94
2023-04-19T12:05:21.899Z,100600.09
2023-04-19T12:07:00.729Z,100611.00
2023-04-19T12:08:35.166Z,100603.03
2023-04-19T12:10:12.068Z,100607.44
2023-04-19T12:11:50.236Z,100599.47
2023-04-19T12:13:22.174Z,100599.47
2023-04-19T12:14:53.992Z,100594.78
2023-04-19T12:16:29.166Z,100595.78
2023-04-19T12:18:02.734Z,100594.03
2023-04-19T12:19:42.434Z,100594.16
2023-04-19T12:21:25.947Z,100588.13
2023-04-19T12:22:57.716Z,100587.50
2023-04-19T12:24:29.554Z,100587.50
2023-04-19T12:26:05.879Z,100583.66
2023-04-19T12:27:37.681Z,100586.84
2023-04-19T12:29:09.541Z,100578.34
2023-04-19T12:30:42.229Z,100585.59
2023-04-19T12:32:16.223Z,100580.19
2023-04-19T12:33:49.261Z,100584.06
2023-04-19T12:35:23.208Z,100575.19
2023-04-19T12:36:55.424Z,100567.28
2023-04-19T12:38:27.779Z,100570.19
2023-04-19T12:39:59.673Z,100562.97
2023-04-19T12:41:31.559Z,100566.63
2023-04-19T12:43:03.418Z,100558.63
2023-04-19T12:44:35.266Z,100566.09
2023-04-19T12:46:07.187Z,100561.69
2023-04-19T12:47:39.887Z,100566.09
2023-04-19T12:49:11.826Z,100551.72
2023-04-19T12:50:43.629Z,100551.59
2023-04-19T12:52:15.625Z,100554.75
2023-04-19T12:53:50.661Z,100552.63
2023-04-19T12:55:22.590Z,100539.03
2023-04-19T12:56:54.368Z,100546.88
2023-04-19T12:58:28.318Z,100537.63
2023-04-19T13:00:00.290Z,100541.78
2023-04-19T13:01:33.099Z,100548.16
2023-04-19T13:03:05.091Z,100543.16
2023-04-19T13:04:37.276Z,100548.72
2023-04-19T13:06:09.243Z,100543.13
2023-04-19T13:07:41.405Z,100540.69
2023-04-19T13:09:14.976Z,100544.94
2023-04-19T13:10:47.511Z,100539.31
2023-04-19T13:12:19.977Z,100532.00
2023-04-19T13:13:52.749Z,100535.94
2023-04-19T13:15:24.749Z,100528.81
2023-04-19T13:16:56.664Z,100534.22
2023-04-19T13:18:28.454Z,100531.25
2023-04-19T13:20:00.277Z,100525.44
2023-04-19T13:21:32.090Z,100519.31
2023-04-19T13:23:03.913Z,100522.03
2023-04-19T13:24:35.907Z,100516.03
2023-04-19T13:26:07.680Z,100515.03
2023-04-19T13:27:39.496Z,100519.44
2023-04-19T13:29:11.338Z,100511.06
2023-04-19T13:30:43.091Z,100513.66
2023-04-19T13:32:15.345Z,100506.72
2023-04-19T13:33:47.138Z,100500.50
2023-04-19T13:35:18.953Z,100501.13
2023-04-19T13:36:50.730Z,100494.75
2023-04-19T13:38:23.293Z,100495.31
2023-04-19T13:40:03.956Z,100493.06
2023-04-19T13:41:42.877Z,100486.97
2023-04-19T13:43:14.654Z,100492.81
2023-04-19T13:44:46.422Z,100496.50
2023-04-19T13:46:18.220Z,100491.25
2023-04-19T13:47:50.012Z,100492.81
2023-04-19T13:49:21.854Z,100502.31
2023-04-19T13:50:55.097Z,100501.44
2023-04-19T13:52:27.030Z,100491.44
2023-04-19T13:53:58.829Z,100481.16
2023-04-19T13:55:30.686Z,100491.28
2023-04-19T13:57:03.071Z,100485.13
2023-04-19T13:58:36.311Z,100493.25
2023-04-19T14:00:08.776Z,100488.25
2023-04-19T14:01:41.176Z,100477.34
2023-04-19T14:03:13.274Z,100474.69
2023-04-19T14:04:45.194Z,100482.28
2023-04-19T14:06:17.234Z,100484.44
2023-04-19T14:07:49.060Z,100494.25
2023-04-19T14:09:20.887Z,100494.81
2023-04-19T14:10:52.746Z,100505.38
2023-04-19T14:12:24.551Z,100511.47
2023-04-19T14:13:56.475Z,100509.28
2023-04-19T14:15:28.442Z,100519.03
2023-04-19T14:17:00.229Z,100526.31
2023-04-19T14:18:32.019Z,100534.13
2023-04-19T14:20:06.872Z,100529.34
2023-04-19T14:21:39.614Z,100531.09
2023-04-19T14:23:11.604Z,100522.69
2023-04-19T14:24:43.835Z,100519.78
2023-04-19T14:26:15.821Z,100524.97
2023-04-19T14:27:47.679Z,100533.72
2023-04-19T14:29:19.511Z,100533.19
2023-04-19T14:30:51.988Z,100522.91
2023-04-19T14:32:26.750Z,100524.88
2023-04-19T14:34:00.069Z,100528.34
2023-04-19T14:35:32.069Z,100535.34
2023-04-19T14:37:03.902Z,100529.59
2023-04-19T14:38:35.830Z,100529.09
2023-04-19T14:40:08.352Z,100539.03
2023-04-19T14:41:40.191Z,100538.91
2023-04-19T14:43:15.464Z,100526.44
2023-04-19T14:44:47.529Z,100539.34
2023-04-19T14:46:19.360Z,100533.44
2023-04-19T14:47:51.513Z,100538.47
2023-04-19T14:49:23.327Z,100537.81
2023-04-19T14:50:55.933Z,100537.28
2023-04-19T14:52:28.024Z,100537.38
2023-04-19T14:53:59.951Z,100540.19
2023-04-19T14:55:31.751Z,100536.00
2023-04-19T14:57:03.629Z,100552.75
2023-04-19T14:58:35.703Z,100549.00
2023-04-19T15:00:09.592Z,100547.47
2023-04-19T15:01:41.646Z,100553.69
2023-04-19T15:03:13.740Z,100557.56
2023-04-19T15:04:45.821Z,100558.59
2023-04-19T15:06:17.761Z,100560.53
2023-04-19T15:07:49.778Z,100567.09
2023-04-19T15:09:21.679Z,100568.34
2023-04-19T15:10:53.518Z,100574.00
2023-04-19T15:12:25.405Z,100571.66
2023-04-19T15:13:57.216Z,100571.28
2023-04-19T15:15:29.029Z,100571.72
2023-04-19T15:17:01.021Z,100567.91
2023-04-19T15:18:32.829Z,100565.72
2023-04-19T15:20:06.094Z,100563.56
2023-04-19T15:21:38.002Z,100563.09
2023-04-19T15:23:09.822Z,100566.25
2023-04-19T15:24:41.629Z,100568.47
2023-04-19T15:26:13.698Z,100567.81
2023-04-19T15:27:45.728Z,100561.13
2023-04-19T15:29:17.669Z,100566.09
2023-04-19T15:31:18.835Z,100563.13
2023-04-19T15:32:50.850Z,100569.38
2023-04-19T15:34:22.712Z,100567.84
2023-04-19T15:35:55.593Z,100567.16
2023-04-19T15:37:27.761Z,100562.78
2023-04-19T15:38:59.771Z,100562.84
2023-04-19T15:40:32.096Z,100562.97
2023-04-19T15:42:04.065Z,100560.28
2023-04-19T15:43:35.899Z,100556.75
2023-04-19T15:45:08.256Z,100561.16
2023-04-19T15:46:40.110Z,100558.47
2023-04-19T15:48:12.092Z,100558.28
2023-04-19T15:49:43.906Z,100567.16
2023-04-19T15:51:16.295Z,100564.78
2023-04-19T15:52:48.126Z,100556.75
2023-04-19T15:54:21.780Z,100562.31
2023-04-19T15:55:55.816Z,100559.81
2023-04-19T15:57:27.967Z,100568.81
2023-04-19T15:58:59.926Z,100562.78
2023-04-19T16:00:31.876Z,100561.91
2023-04-19T16:02:03.866Z,100560.19
2023-04-19T16:03:35.896Z,100563.06
2023-04-19T16:05:08.170Z,100560.47
2023-04-19T16:06:39.959Z,100558.63
2023-04-19T16:08:17.407Z,100564.06
2023-04-19T16:09:49.559Z,100561.31
2023-04-19T16:11:21.750Z,100557.84
2023-04-19T16:12:53.562Z,100552.50
2023-04-19T16:14:25.494Z,100559.56
2023-04-19T16:15:57.384Z,100552.50
2023-04-19T16:17:29.233Z,100554.22
2023-04-19T16:19:01.059Z,100553.34
2023-04-19T16:20:32.869Z,100545.25
2023-04-19T16:22:05.693Z,100548.81
2023-04-19T16:23:37.484Z,100541.44
2023-04-19T16:25:11.846Z,100541.53
2023-04-19T16:26:43.712Z,100543.25
2023-04-19T16:28:15.742Z,100537.78
2023-04-19T16:29:47.522Z,100530.72
2023-04-19T16:31:19.342Z,100529.84
2023-04-19T16:32:51.496Z,100536.25
2023-04-19T16:34:25.579Z,100531.91
2023-04-19T16:35:57.390Z,100530.19
2023-04-19T16:37:29.197Z,100539.22
2023-04-19T16:39:01.751Z,100527.81
2023-04-19T16:40:33.586Z,100526.94
2023-04-19T16:42:05.550Z,100531.56
2023-04-19T16:43:37.393Z,100524.56
2023-04-19T16:45:09.691Z,100537.19
2023-04-19T16:46:42.773Z,100541.00
2023-04-19T16:48:14.634Z,100537.59
2023-04-19T16:49:48.024Z,100537.78
2023-04-19T16:51:20.001Z,100537.00
2023-04-19T16:52:51.837Z,100532.78
2023-04-19T16:54:23.626Z,100532.00
2023-04-19T16:55:56.680Z,100532.19
2023-04-19T16:57:28.625Z,100538.59
2023-04-19T16:59:01.559Z,100530.66
2023-04-19T17:00:33.520Z,100531.63
2023-04-19T17:02:07.689Z,100528.16
2023-04-19T17:03:40.004Z,100527.31
2023-04-19T17:05:13.966Z,100529.22
2023-04-19T17:06:45.938Z,100525.69
2023-04-19T17:08:17.725Z,100520.50
2023-04-19T17:09:50.824Z,100530.34
2023-04-19T17:11:23.000Z,100518.00
2023-04-19T17:12:55.734Z,100516.31
2023-04-19T17:14:28.180Z,100509.31
2023-04-19T17:16:00.047Z,100516.47
2023-04-19T17:17:31.904Z,100511.31
2023-04-19T17:19:03.729Z,100514.84
2023-04-19T17:20:35.804Z,100513.22
2023-04-19T17:22:07.620Z,100508.81
2023-04-19T17:23:39.406Z,100510.63
2023-04-19T17:25:11.247Z,100509.00
2023-04-19T17:26:43.056Z,100511.69
2023-04-19T17:28:14.839Z,100504.63
2023-04-19T17:29:46.657Z,100502.88
2023-04-19T17:31:18.513Z,100502.13
2023-04-19T17:32:50.441Z,100507.47
2023-04-19T17:34:22.912Z,100502.19
2023-04-19T17:35:54.687Z,100506.69
2023-04-19T17:37:26.541Z,100507.66
2023-04-19T17:38:58.389Z,100503.22
2023-04-19T17:40:30.194Z,100507.84
2023-04-19T17:42:01.996Z,100505.16
2023-04-19T17:43:33.786Z,100508.78
2023-04-19T17:45:10.976Z,100504.31
2023-04-19T17:46:42.898Z,100506.19
2023-04-19T17:48:14.765Z,100506.19
2023-04-19T17:49:47.009Z,100514.34
2023-04-19T17:51:18.909Z,100511.72
2023-04-19T17:52:50.797Z,100505.53
2023-04-19T17:54:22.706Z,100505.53
2023-04-19T17:55:54.595Z,100514.50
2023-04-19T17:57:29.241Z,100510.09
2023-04-19T17:59:03.734Z,100511.91